sensor_id;sensor_type;location;lat;lon;timestamp;P1;durP1;ratioP1;P2;durP2;ratioP2
37973;SDS011;23796;51.458;7.000;2024-01-25T00:01:41;34.83;;;8.93;;
37973;SDS011;23796;51.458;7.000;2024-01-25T00:04:09;23.20;;;6.25;;
37973;SDS011;23796;51.458;7.000;2024-01-25T00:06:35;28.25;;;7.10;;
37973;SDS011;23796;51.458;7.000;2024-01-25T00:09:02;26.95;;;7.03;;
37973;SDS011;23796;51.458;7.000;2024-01-25T00:11:29;27.77;;;7.03;;
37973;SDS011;23796;51.458;7.000;2024-01-25T00:13:56;25.02;;;7.50;;
37973;SDS011;23796;51.458;7.000;2024-01-25T00:16:22;28.63;;;7.40;;
37973;SDS011;23796;51.458;7.000;2024-01-25T00:18:50;36.95;;;8.02;;
37973;SDS011;23796;51.458;7.000;2024-01-25T00:21:16;25.52;;;6.32;;
37973;SDS011;23796;51.458;7.000;2024-01-25T00:23:42;25.40;;;7.00;;
37973;SDS011;23796;51.458;7.000;2024-01-25T00:26:07;25.83;;;7.38;;
37973;SDS011;23796;51.458;7.000;2024-01-25T00:28:33;33.03;;;7.72;;
37973;SDS011;23796;51.458;7.000;2024-01-25T00:30:58;26.75;;;7.20;;
37973;SDS011;23796;51.458;7.000;2024-01-25T00:33:26;30.27;;;7.28;;
37973;SDS011;23796;51.458;7.000;2024-01-25T00:35:52;32.05;;;8.50;;
37973;SDS011;23796;51.458;7.000;2024-01-25T00:38:18;25.65;;;7.10;;
37973;SDS011;23796;51.458;7.000;2024-01-25T00:40:44;24.55;;;6.25;;
37973;SDS011;23796;51.458;7.000;2024-01-25T00:43:10;27.60;;;6.97;;
37973;SDS011;23796;51.458;7.000;2024-01-25T00:45:38;26.30;;;6.82;;
37973;SDS011;23796;51.458;7.000;2024-01-25T00:48:06;21.92;;;6.43;;
37973;SDS011;23796;51.458;7.000;2024-01-25T00:50:32;25.63;;;8.80;;
37973;SDS011;23796;51.458;7.000;2024-01-25T00:52:58;26.10;;;6.78;;
37973;SDS011;23796;51.458;7.000;2024-01-25T00:55:24;30.67;;;8.95;;
37973;SDS011;23796;51.458;7.000;2024-01-25T00:57:50;22.25;;;6.40;;
37973;SDS011;23796;51.458;7.000;2024-01-25T01:00:16;29.10;;;7.30;;
37973;SDS011;23796;51.458;7.000;2024-01-25T01:02:45;23.83;;;6.75;;
37973;SDS011;23796;51.458;7.000;2024-01-25T01:05:12;23.23;;;6.05;;
37973;SDS011;23796;51.458;7.000;2024-01-25T01:07:38;26.52;;;6.80;;
37973;SDS011;23796;51.458;7.000;2024-01-25T01:10:07;29.25;;;7.53;;
37973;SDS011;23796;51.458;7.000;2024-01-25T01:12:36;28.95;;;7.65;;
37973;SDS011;23796;51.458;7.000;2024-01-25T01:15:02;32.70;;;8.65;;
37973;SDS011;23796;51.458;7.000;2024-01-25T01:17:28;22.60;;;7.10;;
37973;SDS011;23796;51.458;7.000;2024-01-25T01:19:54;27.90;;;6.78;;
37973;SDS011;23796;51.458;7.000;2024-01-25T01:22:22;25.92;;;6.68;;
37973;SDS011;23796;51.458;7.000;2024-01-25T01:24:47;26.27;;;6.00;;
37973;SDS011;23796;51.458;7.000;2024-01-25T01:27:13;29.33;;;7.50;;
37973;SDS011;23796;51.458;7.000;2024-01-25T01:29:38;27.67;;;7.15;;
37973;SDS011;23796;51.458;7.000;2024-01-25T01:32:04;24.80;;;6.82;;
37973;SDS011;23796;51.458;7.000;2024-01-25T01:34:30;28.90;;;7.07;;
37973;SDS011;23796;51.458;7.000;2024-01-25T01:36:56;29.23;;;8.50;;
37973;SDS011;23796;51.458;7.000;2024-01-25T01:39:21;29.73;;;6.85;;
37973;SDS011;23796;51.458;7.000;2024-01-25T01:41:50;25.85;;;6.88;;
37973;SDS011;23796;51.458;7.000;2024-01-25T01:44:18;27.33;;;6.78;;
37973;SDS011;23796;51.458;7.000;2024-01-25T01:46:44;29.98;;;7.43;;
37973;SDS011;23796;51.458;7.000;2024-01-25T01:49:14;24.55;;;6.80;;
37973;SDS011;23796;51.458;7.000;2024-01-25T01:51:40;26.90;;;7.28;;
37973;SDS011;23796;51.458;7.000;2024-01-25T01:54:08;30.95;;;6.70;;
37973;SDS011;23796;51.458;7.000;2024-01-25T01:56:34;27.48;;;8.00;;
37973;SDS011;23796;51.458;7.000;2024-01-25T01:59:00;21.15;;;6.40;;
37973;SDS011;23796;51.458;7.000;2024-01-25T02:01:27;25.50;;;7.07;;
37973;SDS011;23796;51.458;7.000;2024-01-25T02:03:53;23.58;;;6.78;;
37973;SDS011;23796;51.458;7.000;2024-01-25T02:06:20;26.80;;;7.95;;
37973;SDS011;23796;51.458;7.000;2024-01-25T02:08:48;26.80;;;6.97;;
37973;SDS011;23796;51.458;7.000;2024-01-25T02:11:15;27.15;;;6.43;;
37973;SDS011;23796;51.458;7.000;2024-01-25T02:13:41;29.90;;;6.85;;
37973;SDS011;23796;51.458;7.000;2024-01-25T02:16:12;24.77;;;6.88;;
37973;SDS011;23796;51.458;7.000;2024-01-25T02:18:39;26.48;;;5.80;;
37973;SDS011;23796;51.458;7.000;2024-01-25T02:21:09;28.95;;;6.85;;
37973;SDS011;23796;51.458;7.000;2024-01-25T02:23:35;33.17;;;7.35;;
37973;SDS011;23796;51.458;7.000;2024-01-25T02:26:02;29.67;;;7.32;;
37973;SDS011;23796;51.458;7.000;2024-01-25T02:28:28;24.00;;;6.65;;
37973;SDS011;23796;51.458;7.000;2024-01-25T02:30:54;25.25;;;8.15;;
37973;SDS011;23796;51.458;7.000;2024-01-25T02:33:22;26.75;;;6.15;;
37973;SDS011;23796;51.458;7.000;2024-01-25T02:35:47;23.52;;;6.72;;
37973;SDS011;23796;51.458;7.000;2024-01-25T02:38:13;24.48;;;6.57;;
37973;SDS011;23796;51.458;7.000;2024-01-25T02:40:39;25.85;;;7.43;;
37973;SDS011;23796;51.458;7.000;2024-01-25T02:43:05;29.23;;;6.57;;
37973;SDS011;23796;51.458;7.000;2024-01-25T02:45:30;30.73;;;6.75;;
37973;SDS011;23796;51.458;7.000;2024-01-25T02:47:56;32.00;;;8.27;;
37973;SDS011;23796;51.458;7.000;2024-01-25T02:50:21;25.88;;;6.82;;
37973;SDS011;23796;51.458;7.000;2024-01-25T02:52:49;23.58;;;7.20;;
37973;SDS011;23796;51.458;7.000;2024-01-25T02:55:18;26.08;;;7.03;;
37973;SDS011;23796;51.458;7.000;2024-01-25T02:57:44;25.45;;;7.05;;
37973;SDS011;23796;51.458;7.000;2024-01-25T03:00:09;24.65;;;6.85;;
37973;SDS011;23796;51.458;7.000;2024-01-25T03:02:35;25.65;;;7.05;;
37973;SDS011;23796;51.458;7.000;2024-01-25T03:05:01;24.05;;;6.00;;
37973;SDS011;23796;51.458;7.000;2024-01-25T03:07:27;27.70;;;6.05;;
37973;SDS011;23796;51.458;7.000;2024-01-25T03:09:52;21.98;;;6.05;;
37973;SDS011;23796;51.458;7.000;2024-01-25T03:12:18;23.95;;;6.05;;
37973;SDS011;23796;51.458;7.000;2024-01-25T03:14:44;30.33;;;7.45;;
37973;SDS011;23796;51.458;7.000;2024-01-25T03:17:10;29.55;;;6.88;;
37973;SDS011;23796;51.458;7.000;2024-01-25T03:19:37;25.27;;;7.00;;
37973;SDS011;23796;51.458;7.000;2024-01-25T03:22:03;21.75;;;6.55;;
37973;SDS011;23796;51.458;7.000;2024-01-25T03:24:29;28.35;;;6.82;;
37973;SDS011;23796;51.458;7.000;2024-01-25T03:26:54;28.38;;;7.03;;
37973;SDS011;23796;51.458;7.000;2024-01-25T03:29:20;23.95;;;5.53;;
37973;SDS011;23796;51.458;7.000;2024-01-25T03:31:45;25.02;;;6.63;;
37973;SDS011;23796;51.458;7.000;2024-01-25T03:34:11;28.90;;;6.15;;
37973;SDS011;23796;51.458;7.000;2024-01-25T03:36:39;23.92;;;4.97;;
37973;SDS011;23796;51.458;7.000;2024-01-25T03:39:05;24.90;;;6.45;;
37973;SDS011;23796;51.458;7.000;2024-01-25T03:41:32;27.90;;;6.25;;
37973;SDS011;23796;51.458;7.000;2024-01-25T03:44:00;26.83;;;6.60;;
37973;SDS011;23796;51.458;7.000;2024-01-25T03:46:28;24.95;;;6.57;;
37973;SDS011;23796;51.458;7.000;2024-01-25T03:48:53;21.77;;;6.45;;
37973;SDS011;23796;51.458;7.000;2024-01-25T03:51:19;31.90;;;6.43;;
37973;SDS011;23796;51.458;7.000;2024-01-25T03:53:45;31.80;;;6.55;;
37973;SDS011;23796;51.458;7.000;2024-01-25T03:56:11;23.95;;;6.30;;
37973;SDS011;23796;51.458;7.000;2024-01-25T03:58:38;34.53;;;6.32;;
37973;SDS011;23796;51.458;7.000;2024-01-25T04:01:03;25.63;;;7.47;;
37973;SDS011;23796;51.458;7.000;2024-01-25T04:03:29;26.48;;;5.93;;
37973;SDS011;23796;51.458;7.000;2024-01-25T04:05:55;27.92;;;6.32;;
37973;SDS011;23796;51.458;7.000;2024-01-25T04:08:20;27.77;;;5.75;;
37973;SDS011;23796;51.458;7.000;2024-01-25T04:10:46;29.83;;;6.38;;
37973;SDS011;23796;51.458;7.000;2024-01-25T04:13:11;24.00;;;6.32;;
37973;SDS011;23796;51.458;7.000;2024-01-25T04:15:37;26.15;;;6.93;;
37973;SDS011;23796;51.458;7.000;2024-01-25T04:18:03;24.80;;;6.30;;
37973;SDS011;23796;51.458;7.000;2024-01-25T04:20:28;22.30;;;6.50;;
37973;SDS011;23796;51.458;7.000;2024-01-25T04:22:54;23.25;;;5.72;;
37973;SDS011;23796;51.458;7.000;2024-01-25T04:25:20;24.42;;;6.75;;
37973;SDS011;23796;51.458;7.000;2024-01-25T04:27:46;24.02;;;6.32;;
37973;SDS011;23796;51.458;7.000;2024-01-25T04:30:12;24.40;;;7.18;;
37973;SDS011;23796;51.458;7.000;2024-01-25T04:32:38;22.30;;;6.18;;
37973;SDS011;23796;51.458;7.000;2024-01-25T04:35:05;28.38;;;6.20;;
37973;SDS011;23796;51.458;7.000;2024-01-25T04:37:31;20.45;;;5.43;;
37973;SDS011;23796;51.458;7.000;2024-01-25T04:39:56;29.95;;;7.32;;
37973;SDS011;23796;51.458;7.000;2024-01-25T04:42:22;23.73;;;5.53;;
37973;SDS011;23796;51.458;7.000;2024-01-25T04:44:47;18.40;;;5.25;;
37973;SDS011;23796;51.458;7.000;2024-01-25T04:47:15;22.98;;;6.38;;
37973;SDS011;23796;51.458;7.000;2024-01-25T04:49:41;25.52;;;6.22;;
37973;SDS011;23796;51.458;7.000;2024-01-25T04:52:09;22.25;;;6.35;;
37973;SDS011;23796;51.458;7.000;2024-01-25T04:54:34;27.92;;;6.40;;
37973;SDS011;23796;51.458;7.000;2024-01-25T04:57:00;24.73;;;5.40;;
37973;SDS011;23796;51.458;7.000;2024-01-25T04:59:31;24.20;;;5.43;;
37973;SDS011;23796;51.458;7.000;2024-01-25T05:01:58;22.17;;;6.53;;
37973;SDS011;23796;51.458;7.000;2024-01-25T05:04:23;28.85;;;6.70;;
37973;SDS011;23796;51.458;7.000;2024-01-25T05:06:49;25.42;;;6.43;;
37973;SDS011;23796;51.458;7.000;2024-01-25T05:09:14;19.80;;;4.93;;
37973;SDS011;23796;51.458;7.000;2024-01-25T05:11:40;30.63;;;6.85;;
37973;SDS011;23796;51.458;7.000;2024-01-25T05:14:06;24.33;;;5.72;;
37973;SDS011;23796;51.458;7.000;2024-01-25T05:16:32;26.60;;;6.10;;
37973;SDS011;23796;51.458;7.000;2024-01-25T05:18:58;27.17;;;6.05;;
37973;SDS011;23796;51.458;7.000;2024-01-25T05:21:23;27.65;;;6.78;;
37973;SDS011;23796;51.458;7.000;2024-01-25T05:23:49;31.05;;;6.90;;
37973;SDS011;23796;51.458;7.000;2024-01-25T05:26:15;26.08;;;5.90;;
37973;SDS011;23796;51.458;7.000;2024-01-25T05:28:40;25.80;;;6.30;;
37973;SDS011;23796;51.458;7.000;2024-01-25T05:31:06;21.88;;;5.70;;
37973;SDS011;23796;51.458;7.000;2024-01-25T05:33:38;28.02;;;6.07;;
37973;SDS011;23796;51.458;7.000;2024-01-25T05:36:07;25.20;;;5.93;;
37973;SDS011;23796;51.458;7.000;2024-01-25T05:38:35;28.65;;;6.53;;
37973;SDS011;23796;51.458;7.000;2024-01-25T05:41:01;25.90;;;6.03;;
37973;SDS011;23796;51.458;7.000;2024-01-25T05:43:26;27.40;;;6.63;;
37973;SDS011;23796;51.458;7.000;2024-01-25T05:45:52;31.05;;;6.65;;
37973;SDS011;23796;51.458;7.000;2024-01-25T05:48:19;24.25;;;5.90;;
37973;SDS011;23796;51.458;7.000;2024-01-25T05:50:45;25.45;;;6.40;;
37973;SDS011;23796;51.458;7.000;2024-01-25T05:53:11;24.05;;;6.70;;
37973;SDS011;23796;51.458;7.000;2024-01-25T05:55:36;24.80;;;6.97;;
37973;SDS011;23796;51.458;7.000;2024-01-25T05:58:02;28.83;;;7.00;;
37973;SDS011;23796;51.458;7.000;2024-01-25T06:00:28;33.17;;;7.80;;
37973;SDS011;23796;51.458;7.000;2024-01-25T06:02:53;26.67;;;6.50;;
37973;SDS011;23796;51.458;7.000;2024-01-25T06:05:19;25.95;;;6.53;;
37973;SDS011;23796;51.458;7.000;2024-01-25T06:07:45;21.92;;;6.32;;
37973;SDS011;23796;51.458;7.000;2024-01-25T06:10:10;29.83;;;6.40;;
37973;SDS011;23796;51.458;7.000;2024-01-25T06:12:36;26.65;;;6.03;;
37973;SDS011;23796;51.458;7.000;2024-01-25T06:15:02;30.42;;;7.15;;
37973;SDS011;23796;51.458;7.000;2024-01-25T06:17:27;25.13;;;6.00;;
37973;SDS011;23796;51.458;7.000;2024-01-25T06:19:53;24.70;;;6.63;;
37973;SDS011;23796;51.458;7.000;2024-01-25T06:22:19;25.27;;;5.70;;
37973;SDS011;23796;51.458;7.000;2024-01-25T06:24:46;30.23;;;6.78;;
37973;SDS011;23796;51.458;7.000;2024-01-25T06:27:12;25.70;;;6.18;;
37973;SDS011;23796;51.458;7.000;2024-01-25T06:29:37;33.85;;;7.28;;
37973;SDS011;23796;51.458;7.000;2024-01-25T06:32:03;25.80;;;6.35;;
37973;SDS011;23796;51.458;7.000;2024-01-25T06:34:32;24.00;;;6.18;;
37973;SDS011;23796;51.458;7.000;2024-01-25T06:36:57;22.48;;;6.65;;
37973;SDS011;23796;51.458;7.000;2024-01-25T06:39:23;27.63;;;6.47;;
37973;SDS011;23796;51.458;7.000;2024-01-25T06:41:51;24.20;;;6.90;;
37973;SDS011;23796;51.458;7.000;2024-01-25T06:44:16;24.63;;;7.60;;
37973;SDS011;23796;51.458;7.000;2024-01-25T06:46:42;27.67;;;7.10;;
37973;SDS011;23796;51.458;7.000;2024-01-25T06:49:08;27.05;;;7.43;;
37973;SDS011;23796;51.458;7.000;2024-01-25T06:51:33;29.33;;;7.03;;
37973;SDS011;23796;51.458;7.000;2024-01-25T06:53:59;25.75;;;7.35;;
37973;SDS011;23796;51.458;7.000;2024-01-25T06:56:25;30.52;;;7.07;;
37973;SDS011;23796;51.458;7.000;2024-01-25T06:58:53;27.80;;;6.35;;
37973;SDS011;23796;51.458;7.000;2024-01-25T07:01:22;32.92;;;7.55;;
37973;SDS011;23796;51.458;7.000;2024-01-25T07:03:48;28.83;;;7.80;;
37973;SDS011;23796;51.458;7.000;2024-01-25T07:06:15;25.63;;;7.40;;
37973;SDS011;23796;51.458;7.000;2024-01-25T07:08:43;28.92;;;7.80;;
37973;SDS011;23796;51.458;7.000;2024-01-25T07:11:08;35.17;;;7.95;;
37973;SDS011;23796;51.458;7.000;2024-01-25T07:13:34;27.98;;;7.22;;
37973;SDS011;23796;51.458;7.000;2024-01-25T07:15:59;28.42;;;7.53;;
37973;SDS011;23796;51.458;7.000;2024-01-25T07:18:25;24.00;;;6.00;;
37973;SDS011;23796;51.458;7.000;2024-01-25T07:20:50;31.90;;;7.13;;
37973;SDS011;23796;51.458;7.000;2024-01-25T07:23:17;27.88;;;6.80;;
37973;SDS011;23796;51.458;7.000;2024-01-25T07:25:43;31.50;;;7.35;;
37973;SDS011;23796;51.458;7.000;2024-01-25T07:28:09;31.08;;;7.28;;
37973;SDS011;23796;51.458;7.000;2024-01-25T07:30:34;28.55;;;8.10;;
37973;SDS011;23796;51.458;7.000;2024-01-25T07:33:00;27.17;;;6.93;;
37973;SDS011;23796;51.458;7.000;2024-01-25T07:35:26;31.17;;;8.07;;
37973;SDS011;23796;51.458;7.000;2024-01-25T07:37:52;25.58;;;7.43;;
37973;SDS011;23796;51.458;7.000;2024-01-25T07:40:20;29.98;;;7.10;;
37973;SDS011;23796;51.458;7.000;2024-01-25T07:42:46;26.40;;;7.10;;
37973;SDS011;23796;51.458;7.000;2024-01-25T07:45:12;25.17;;;7.30;;
37973;SDS011;23796;51.458;7.000;2024-01-25T07:47:40;23.40;;;7.05;;
37973;SDS011;23796;51.458;7.000;2024-01-25T07:50:06;28.77;;;7.63;;
37973;SDS011;23796;51.458;7.000;2024-01-25T07:52:33;24.55;;;7.45;;
37973;SDS011;23796;51.458;7.000;2024-01-25T07:54:59;26.67;;;7.82;;
37973;SDS011;23796;51.458;7.000;2024-01-25T07:57:24;28.60;;;8.73;;
37973;SDS011;23796;51.458;7.000;2024-01-25T07:59:50;26.15;;;7.35;;
37973;SDS011;23796;51.458;7.000;2024-01-25T08:02:16;35.30;;;9.25;;
37973;SDS011;23796;51.458;7.000;2024-01-25T08:04:42;29.23;;;7.50;;
37973;SDS011;23796;51.458;7.000;2024-01-25T08:07:09;27.92;;;8.52;;
37973;SDS011;23796;51.458;7.000;2024-01-25T08:09:35;33.78;;;9.30;;
37973;SDS011;23796;51.458;7.000;2024-01-25T08:12:01;29.13;;;8.30;;
37973;SDS011;23796;51.458;7.000;2024-01-25T08:14:26;24.13;;;8.00;;
37973;SDS011;23796;51.458;7.000;2024-01-25T08:16:52;29.30;;;7.15;;
37973;SDS011;23796;51.458;7.000;2024-01-25T08:19:20;28.05;;;7.43;;
37973;SDS011;23796;51.458;7.000;2024-01-25T08:21:45;29.40;;;7.43;;
37973;SDS011;23796;51.458;7.000;2024-01-25T08:24:11;31.58;;;7.95;;
37973;SDS011;23796;51.458;7.000;2024-01-25T08:26:37;33.60;;;8.40;;
37973;SDS011;23796;51.458;7.000;2024-01-25T08:29:03;29.40;;;8.60;;
37973;SDS011;23796;51.458;7.000;2024-01-25T08:31:29;27.58;;;7.93;;
37973;SDS011;23796;51.458;7.000;2024-01-25T08:33:55;22.50;;;8.27;;
37973;SDS011;23796;51.458;7.000;2024-01-25T08:36:20;26.45;;;7.93;;
37973;SDS011;23796;51.458;7.000;2024-01-25T08:38:47;30.50;;;10.00;;
37973;SDS011;23796;51.458;7.000;2024-01-25T08:41:12;37.03;;;9.77;;
37973;SDS011;23796;51.458;7.000;2024-01-25T08:43:40;25.65;;;9.38;;
37973;SDS011;23796;51.458;7.000;2024-01-25T08:46:08;29.88;;;9.73;;
37973;SDS011;23796;51.458;7.000;2024-01-25T08:48:34;38.60;;;11.80;;
37973;SDS011;23796;51.458;7.000;2024-01-25T08:50:59;36.28;;;11.88;;
37973;SDS011;23796;51.458;7.000;2024-01-25T08:53:27;35.40;;;11.68;;
37973;SDS011;23796;51.458;7.000;2024-01-25T08:55:55;36.75;;;12.43;;
37973;SDS011;23796;51.458;7.000;2024-01-25T08:58:21;30.80;;;11.93;;
37973;SDS011;23796;51.458;7.000;2024-01-25T09:00:47;33.00;;;11.88;;
37973;SDS011;23796;51.458;7.000;2024-01-25T09:03:14;29.83;;;12.32;;
37973;SDS011;23796;51.458;7.000;2024-01-25T09:05:40;32.05;;;13.05;;
37973;SDS011;23796;51.458;7.000;2024-01-25T09:08:10;36.83;;;12.35;;
37973;SDS011;23796;51.458;7.000;2024-01-25T09:10:40;30.75;;;12.40;;
37973;SDS011;23796;51.458;7.000;2024-01-25T09:13:07;31.38;;;12.50;;
37973;SDS011;23796;51.458;7.000;2024-01-25T09:15:33;34.17;;;13.77;;
37973;SDS011;23796;51.458;7.000;2024-01-25T09:17:59;38.22;;;13.77;;
37973;SDS011;23796;51.458;7.000;2024-01-25T09:20:24;31.08;;;13.00;;
37973;SDS011;23796;51.458;7.000;2024-01-25T09:22:50;34.00;;;12.25;;
37973;SDS011;23796;51.458;7.000;2024-01-25T09:25:18;32.78;;;12.40;;
37973;SDS011;23796;51.458;7.000;2024-01-25T09:27:44;36.83;;;13.10;;
37973;SDS011;23796;51.458;7.000;2024-01-25T09:30:10;37.08;;;14.23;;
37973;SDS011;23796;51.458;7.000;2024-01-25T09:32:36;39.58;;;14.45;;
37973;SDS011;23796;51.458;7.000;2024-01-25T09:35:05;29.20;;;13.35;;
37973;SDS011;23796;51.458;7.000;2024-01-25T09:37:30;34.20;;;14.23;;
37973;SDS011;23796;51.458;7.000;2024-01-25T09:39:56;34.60;;;15.55;;
37973;SDS011;23796;51.458;7.000;2024-01-25T09:42:23;35.13;;;15.60;;
37973;SDS011;23796;51.458;7.000;2024-01-25T09:44:49;36.53;;;15.23;;
37973;SDS011;23796;51.458;7.000;2024-01-25T09:47:18;41.38;;;15.30;;
37973;SDS011;23796;51.458;7.000;2024-01-25T09:49:46;36.70;;;16.00;;
37973;SDS011;23796;51.458;7.000;2024-01-25T09:52:12;35.20;;;15.30;;
37973;SDS011;23796;51.458;7.000;2024-01-25T09:54:38;35.90;;;16.13;;
37973;SDS011;23796;51.458;7.000;2024-01-25T09:57:08;40.78;;;16.10;;
37973;SDS011;23796;51.458;7.000;2024-01-25T09:59:42;40.17;;;16.08;;
37973;SDS011;23796;51.458;7.000;2024-01-25T10:02:09;37.72;;;15.93;;
37973;SDS011;23796;51.458;7.000;2024-01-25T10:04:35;37.78;;;17.15;;
37973;SDS011;23796;51.458;7.000;2024-01-25T10:07:00;38.15;;;16.90;;
37973;SDS011;23796;51.458;7.000;2024-01-25T10:09:26;39.67;;;17.50;;
37973;SDS011;23796;51.458;7.000;2024-01-25T10:11:52;39.65;;;18.42;;
37973;SDS011;23796;51.458;7.000;2024-01-25T10:14:17;34.90;;;15.68;;
37973;SDS011;23796;51.458;7.000;2024-01-25T10:16:44;37.28;;;17.33;;
37973;SDS011;23796;51.458;7.000;2024-01-25T10:19:10;39.88;;;17.85;;
37973;SDS011;23796;51.458;7.000;2024-01-25T10:21:37;41.47;;;18.25;;
37973;SDS011;23796;51.458;7.000;2024-01-25T10:24:05;40.10;;;19.55;;
37973;SDS011;23796;51.458;7.000;2024-01-25T10:26:31;39.92;;;19.17;;
37973;SDS011;23796;51.458;7.000;2024-01-25T10:28:56;35.88;;;18.55;;
37973;SDS011;23796;51.458;7.000;2024-01-25T10:31:23;41.72;;;18.35;;
37973;SDS011;23796;51.458;7.000;2024-01-25T10:33:51;32.47;;;17.40;;
37973;SDS011;23796;51.458;7.000;2024-01-25T10:36:17;42.22;;;17.88;;
37973;SDS011;23796;51.458;7.000;2024-01-25T10:38:44;37.05;;;18.13;;
37973;SDS011;23796;51.458;7.000;2024-01-25T10:41:12;36.20;;;17.48;;
37973;SDS011;23796;51.458;7.000;2024-01-25T10:43:39;36.92;;;17.92;;
37973;SDS011;23796;51.458;7.000;2024-01-25T10:46:05;39.25;;;18.95;;
37973;SDS011;23796;51.458;7.000;2024-01-25T10:48:32;34.03;;;16.45;;
37973;SDS011;23796;51.458;7.000;2024-01-25T10:50:58;42.90;;;17.52;;
37973;SDS011;23796;51.458;7.000;2024-01-25T10:53:24;31.85;;;16.38;;
37973;SDS011;23796;51.458;7.000;2024-01-25T10:55:54;33.92;;;16.88;;
37973;SDS011;23796;51.458;7.000;2024-01-25T10:58:22;32.78;;;17.40;;
37973;SDS011;23796;51.458;7.000;2024-01-25T11:01:30;36.38;;;17.60;;
37973;SDS011;23796;51.458;7.000;2024-01-25T11:03:38;33.10;;;16.40;;
37973;SDS011;23796;51.458;7.000;2024-01-25T11:06:09;36.72;;;16.23;;
37973;SDS011;23796;51.458;7.000;2024-01-25T11:08:36;33.60;;;17.05;;
37973;SDS011;23796;51.458;7.000;2024-01-25T11:11:05;39.25;;;16.92;;
37973;SDS011;23796;51.458;7.000;2024-01-25T11:13:34;38.67;;;16.20;;
37973;SDS011;23796;51.458;7.000;2024-01-25T11:16:15;36.30;;;14.57;;
37973;SDS011;23796;51.458;7.000;2024-01-25T11:18:56;32.67;;;13.30;;
37973;SDS011;23796;51.458;7.000;2024-01-25T11:21:42;29.75;;;10.95;;
37973;SDS011;23796;51.458;7.000;2024-01-25T11:26:44;34.53;;;10.52;;
37973;SDS011;23796;51.458;7.000;2024-01-25T11:29:12;25.65;;;9.40;;
37973;SDS011;23796;51.458;7.000;2024-01-25T11:31:45;25.15;;;10.30;;
37973;SDS011;23796;51.458;7.000;2024-01-25T11:34:12;32.25;;;9.52;;
37973;SDS011;23796;51.458;7.000;2024-01-25T11:36:40;29.85;;;10.80;;
37973;SDS011;23796;51.458;7.000;2024-01-25T11:39:06;24.13;;;9.30;;
37973;SDS011;23796;51.458;7.000;2024-01-25T11:41:38;28.17;;;9.30;;
37973;SDS011;23796;51.458;7.000;2024-01-25T11:44:03;30.83;;;9.02;;
37973;SDS011;23796;51.458;7.000;2024-01-25T11:46:32;26.63;;;8.70;;
37973;SDS011;23796;51.458;7.000;2024-01-25T11:48:58;29.42;;;8.15;;
37973;SDS011;23796;51.458;7.000;2024-01-25T11:51:24;31.50;;;9.43;;
37973;SDS011;23796;51.458;7.000;2024-01-25T11:53:50;26.13;;;8.48;;
37973;SDS011;23796;51.458;7.000;2024-01-25T11:56:26;28.63;;;9.43;;
37973;SDS011;23796;51.458;7.000;2024-01-25T11:58:56;23.42;;;8.13;;
37973;SDS011;23796;51.458;7.000;2024-01-25T12:01:25;28.10;;;10.40;;
37973;SDS011;23796;51.458;7.000;2024-01-25T12:03:52;26.40;;;8.07;;
37973;SDS011;23796;51.458;7.000;2024-01-25T12:06:18;26.55;;;8.25;;
37973;SDS011;23796;51.458;7.000;2024-01-25T12:08:45;25.67;;;7.90;;
37973;SDS011;23796;51.458;7.000;2024-01-25T12:11:13;26.90;;;8.75;;
37973;SDS011;23796;51.458;7.000;2024-01-25T12:13:40;28.25;;;8.30;;
37973;SDS011;23796;51.458;7.000;2024-01-25T12:16:09;29.65;;;8.77;;
37973;SDS011;23796;51.458;7.000;2024-01-25T12:18:36;25.40;;;10.38;;
37973;SDS011;23796;51.458;7.000;2024-01-25T12:21:03;30.48;;;11.23;;
37973;SDS011;23796;51.458;7.000;2024-01-25T12:23:33;22.75;;;9.27;;
37973;SDS011;23796;51.458;7.000;2024-01-25T12:26:06;37.30;;;13.93;;
37973;SDS011;23796;51.458;7.000;2024-01-25T12:28:33;26.75;;;9.10;;
37973;SDS011;23796;51.458;7.000;2024-01-25T12:31:00;28.60;;;9.68;;
37973;SDS011;23796;51.458;7.000;2024-01-25T12:33:28;26.85;;;8.38;;
37973;SDS011;23796;51.458;7.000;2024-01-25T12:35:54;28.48;;;9.52;;
37973;SDS011;23796;51.458;7.000;2024-01-25T12:38:20;28.30;;;9.50;;
37973;SDS011;23796;51.458;7.000;2024-01-25T12:40:47;26.38;;;9.07;;
37973;SDS011;23796;51.458;7.000;2024-01-25T12:43:14;20.45;;;7.75;;
37973;SDS011;23796;51.458;7.000;2024-01-25T12:45:40;27.90;;;9.20;;
37973;SDS011;23796;51.458;7.000;2024-01-25T12:48:08;27.92;;;10.07;;
37973;SDS011;23796;51.458;7.000;2024-01-25T12:50:35;27.27;;;9.70;;
37973;SDS011;23796;51.458;7.000;2024-01-25T12:53:01;32.33;;;9.90;;
37973;SDS011;23796;51.458;7.000;2024-01-25T12:55:30;24.15;;;7.53;;
37973;SDS011;23796;51.458;7.000;2024-01-25T12:57:59;26.00;;;8.63;;
37973;SDS011;23796;51.458;7.000;2024-01-25T13:00:25;27.67;;;9.65;;
37973;SDS011;23796;51.458;7.000;2024-01-25T13:02:51;26.77;;;9.90;;
37973;SDS011;23796;51.458;7.000;2024-01-25T13:05:18;26.42;;;8.38;;
37973;SDS011;23796;51.458;7.000;2024-01-25T13:07:44;24.40;;;8.68;;
37973;SDS011;23796;51.458;7.000;2024-01-25T13:10:09;25.55;;;9.00;;
37973;SDS011;23796;51.458;7.000;2024-01-25T13:12:40;27.52;;;9.27;;
37973;SDS011;23796;51.458;7.000;2024-01-25T13:15:06;27.27;;;9.50;;
37973;SDS011;23796;51.458;7.000;2024-01-25T13:17:35;28.08;;;11.02;;
37973;SDS011;23796;51.458;7.000;2024-01-25T13:20:01;24.33;;;9.45;;
37973;SDS011;23796;51.458;7.000;2024-01-25T13:22:28;30.92;;;9.93;;
37973;SDS011;23796;51.458;7.000;2024-01-25T13:24:55;28.38;;;9.65;;
37973;SDS011;23796;51.458;7.000;2024-01-25T13:27:20;30.58;;;10.48;;
37973;SDS011;23796;51.458;7.000;2024-01-25T13:29:46;28.90;;;9.88;;
37973;SDS011;23796;51.458;7.000;2024-01-25T13:32:11;32.80;;;12.30;;
37973;SDS011;23796;51.458;7.000;2024-01-25T13:34:37;26.40;;;10.02;;
37973;SDS011;23796;51.458;7.000;2024-01-25T13:37:05;24.58;;;10.02;;
37973;SDS011;23796;51.458;7.000;2024-01-25T13:39:30;25.65;;;10.55;;
37973;SDS011;23796;51.458;7.000;2024-01-25T13:41:56;26.50;;;11.20;;
37973;SDS011;23796;51.458;7.000;2024-01-25T13:44:21;36.60;;;11.25;;
37973;SDS011;23796;51.458;7.000;2024-01-25T13:46:47;32.90;;;11.88;;
37973;SDS011;23796;51.458;7.000;2024-01-25T13:49:13;34.65;;;12.27;;
37973;SDS011;23796;51.458;7.000;2024-01-25T13:51:38;29.02;;;12.05;;
37973;SDS011;23796;51.458;7.000;2024-01-25T13:54:04;34.22;;;12.48;;
37973;SDS011;23796;51.458;7.000;2024-01-25T13:56:30;37.25;;;12.10;;
37973;SDS011;23796;51.458;7.000;2024-01-25T13:58:58;31.38;;;12.95;;
37973;SDS011;23796;51.458;7.000;2024-01-25T14:01:24;32.75;;;11.82;;
37973;SDS011;23796;51.458;7.000;2024-01-25T14:03:50;35.25;;;14.25;;
37973;SDS011;23796;51.458;7.000;2024-01-25T14:06:17;33.58;;;12.30;;
37973;SDS011;23796;51.458;7.000;2024-01-25T14:08:43;34.13;;;14.32;;
37973;SDS011;23796;51.458;7.000;2024-01-25T14:11:09;29.02;;;12.70;;
37973;SDS011;23796;51.458;7.000;2024-01-25T14:13:35;33.70;;;13.43;;
37973;SDS011;23796;51.458;7.000;2024-01-25T14:16:00;34.05;;;13.85;;
37973;SDS011;23796;51.458;7.000;2024-01-25T14:18:27;33.25;;;13.85;;
37973;SDS011;23796;51.458;7.000;2024-01-25T14:20:54;29.13;;;12.40;;
37973;SDS011;23796;51.458;7.000;2024-01-25T14:23:19;34.33;;;13.20;;
37973;SDS011;23796;51.458;7.000;2024-01-25T14:25:46;30.85;;;12.70;;
37973;SDS011;23796;51.458;7.000;2024-01-25T14:28:14;23.33;;;11.63;;
37973;SDS011;23796;51.458;7.000;2024-01-25T14:30:40;34.08;;;12.85;;